sensor_id;sensor_type;location;lat;lon;timestamp;temperature;humidity
5476;DHT22;2760;50.000;9.194;2023-02-28T00:01:46;0.40;99.90
5476;DHT22;2760;50.000;9.194;2023-02-28T00:04:13;0.40;99.90
5476;DHT22;2760;50.000;9.194;2023-02-28T00:06:40;2.40;99.90
5476;DHT22;2760;50.000;9.194;2023-02-28T00:09:07;0.50;99.90
5476;DHT22;2760;50.000;9.194;2023-02-28T00:11:34;0.50;99.90
5476;DHT22;2760;50.000;9.194;2023-02-28T00:14:04;0.50;99.90
5476;DHT22;2760;50.000;9.194;2023-02-28T00:16:31;0.20;99.90
5476;DHT22;2760;50.000;9.194;2023-02-28T00:18:58;0.40;99.90
5476;DHT22;2760;50.000;9.194;2023-02-28T00:21:25;0.60;99.90
5476;DHT22;2760;50.000;9.194;2023-02-28T00:23:54;2.70;99.90
5476;DHT22;2760;50.000;9.194;2023-02-28T00:26:21;0.40;99.90
5476;DHT22;2760;50.000;9.194;2023-02-28T00:28:49;0.30;99.90
5476;DHT22;2760;50.000;9.194;2023-02-28T00:31:19;0.30;99.90
5476;DHT22;2760;50.000;9.194;2023-02-28T00:33:47;0.20;99.90
5476;DHT22;2760;50.000;9.194;2023-02-28T00:36:14;2.00;99.90
5476;DHT22;2760;50.000;9.194;2023-02-28T00:38:42;0.30;99.90
5476;DHT22;2760;50.000;9.194;2023-02-28T00:41:09;0.40;99.90
5476;DHT22;2760;50.000;9.194;2023-02-28T00:43:37;4.30;99.90
5476;DHT22;2760;50.000;9.194;2023-02-28T00:46:05;0.00;99.90
5476;DHT22;2760;50.000;9.194;2023-02-28T00:48:34;-0.20;99.90
5476;DHT22;2760;50.000;9.194;2023-02-28T00:51:04;2.20;99.90
5476;DHT22;2760;50.000;9.194;2023-02-28T00:53:31;-0.30;99.90
5476;DHT22;2760;50.000;9.194;2023-02-28T00:55:59;-0.30;99.90
5476;DHT22;2760;50.000;9.194;2023-02-28T00:58:26;2.00;99.90
5476;DHT22;2760;50.000;9.194;2023-02-28T01:00:53;-0.30;99.90
5476;DHT22;2760;50.000;9.194;2023-02-28T01:03:21;-0.30;99.90
5476;DHT22;2760;50.000;9.194;2023-02-28T01:05:50;-0.20;99.90
5476;DHT22;2760;50.000;9.194;2023-02-28T01:08:18;-0.40;99.90
5476;DHT22;2760;50.000;9.194;2023-02-28T01:10:45;-0.50;99.90
5476;DHT22;2760;50.000;9.194;2023-02-28T01:13:13;1.70;99.90
5476;DHT22;2760;50.000;9.194;2023-02-28T01:15:43;-0.50;99.90
5476;DHT22;2760;50.000;9.194;2023-02-28T01:18:12;-0.50;99.90
5476;DHT22;2760;50.000;9.194;2023-02-28T01:20:39;-0.60;99.90
5476;DHT22;2760;50.000;9.194;2023-02-28T01:23:07;1.50;99.90
5476;DHT22;2760;50.000;9.194;2023-02-28T01:25:34;-0.80;99.90
5476;DHT22;2760;50.000;9.194;2023-02-28T01:28:04;-0.60;99.90
5476;DHT22;2760;50.000;9.194;2023-02-28T01:30:32;-0.60;99.90
5476;DHT22;2760;50.000;9.194;2023-02-28T01:32:59;1.80;99.90
5476;DHT22;2760;50.000;9.194;2023-02-28T01:35:26;-0.50;99.90
5476;DHT22;2760;50.000;9.194;2023-02-28T01:37:53;-0.80;99.90
5476;DHT22;2760;50.000;9.194;2023-02-28T01:40:22;-0.60;99.90
5476;DHT22;2760;50.000;9.194;2023-02-28T01:42:49;-0.70;99.90
5476;DHT22;2760;50.000;9.194;2023-02-28T01:45:22;-0.90;99.90
5476;DHT22;2760;50.000;9.194;2023-02-28T01:47:55;-1.00;99.90
5476;DHT22;2760;50.000;9.194;2023-02-28T01:50:28;-1.10;99.90
5476;DHT22;2760;50.000;9.194;2023-02-28T01:53:00;-1.20;99.90
5476;DHT22;2760;50.000;9.194;2023-02-28T01:55:32;-1.00;99.90
5476;DHT22;2760;50.000;9.194;2023-02-28T01:58:02;-2.30;99.90
5476;DHT22;2760;50.000;9.194;2023-02-28T02:00:31;1.00;99.90
5476;DHT22;2760;50.000;9.194;2023-02-28T02:03:00;0.30;99.90
5476;DHT22;2760;50.000;9.194;2023-02-28T02:05:29;-1.20;99.90
5476;DHT22;2760;50.000;9.194;2023-02-28T02:08:01;-0.10;99.90
5476;DHT22;2760;50.000;9.194;2023-02-28T02:10:34;-1.10;99.90
5476;DHT22;2760;50.000;9.194;2023-02-28T02:13:11;-1.00;99.90
5476;DHT22;2760;50.000;9.194;2023-02-28T02:15:43;-1.10;99.90
5476;DHT22;2760;50.000;9.194;2023-02-28T02:18:19;-1.30;99.90
5476;DHT22;2760;50.000;9.194;2023-02-28T02:21:15;-1.10;99.90
5476;DHT22;2760;50.000;9.194;2023-02-28T02:24:03;-1.20;99.90
5476;DHT22;2760;50.000;9.194;2023-02-28T02:26:54;-1.40;99.90
5476;DHT22;2760;50.000;9.194;2023-02-28T02:29:37;-1.60;99.90
5476;DHT22;2760;50.000;9.194;2023-02-28T02:32:20;-1.40;99.90
5476;DHT22;2760;50.000;9.194;2023-02-28T02:35:04;-1.40;99.90
5476;DHT22;2760;50.000;9.194;2023-02-28T02:37:39;-1.30;99.90
5476;DHT22;2760;50.000;9.194;2023-02-28T02:40:12;-1.40;99.90
5476;DHT22;2760;50.000;9.194;2023-02-28T02:42:45;-1.50;99.90
5476;DHT22;2760;50.000;9.194;2023-02-28T02:45:21;-1.50;99.90
5476;DHT22;2760;50.000;9.194;2023-02-28T02:47:50;-1.40;99.90
5476;DHT22;2760;50.000;9.194;2023-02-28T02:50:24;-0.70;99.90
5476;DHT22;2760;50.000;9.194;2023-02-28T02:52:55;-1.40;99.90
5476;DHT22;2760;50.000;9.194;2023-02-28T02:55:23;-1.30;99.90
5476;DHT22;2760;50.000;9.194;2023-02-28T02:57:54;-1.40;99.90
5476;DHT22;2760;50.000;9.194;2023-02-28T03:00:29;-1.40;99.90
5476;DHT22;2760;50.000;9.194;2023-02-28T03:02:58;-1.40;99.90
5476;DHT22;2760;50.000;9.194;2023-02-28T03:05:32;-1.40;99.90
5476;DHT22;2760;50.000;9.194;2023-02-28T03:08:03;-1.30;99.90
5476;DHT22;2760;50.000;9.194;2023-02-28T03:10:35;-1.30;99.90
5476;DHT22;2760;50.000;9.194;2023-02-28T03:13:29;-1.30;99.90
5476;DHT22;2760;50.000;9.194;2023-02-28T03:16:15;-1.40;99.90
5476;DHT22;2760;50.000;9.194;2023-02-28T03:18:54;-1.50;99.90
5476;DHT22;2760;50.000;9.194;2023-02-28T03:21:30;-1.50;99.90
5476;DHT22;2760;50.000;9.194;2023-02-28T03:24:04;-1.50;99.90
5476;DHT22;2760;50.000;9.194;2023-02-28T03:26:34;-1.50;99.90
5476;DHT22;2760;50.000;9.194;2023-02-28T03:29:09;-1.50;99.90
5476;DHT22;2760;50.000;9.194;2023-02-28T03:31:41;-1.70;99.90
5476;DHT22;2760;50.000;9.194;2023-02-28T03:34:16;-1.60;99.90
5476;DHT22;2760;50.000;9.194;2023-02-28T03:36:48;-1.50;99.90
5476;DHT22;2760;50.000;9.194;2023-02-28T03:39:20;-1.40;99.90
5476;DHT22;2760;50.000;9.194;2023-02-28T03:41:51;-1.50;99.90
5476;DHT22;2760;50.000;9.194;2023-02-28T03:44:23;-1.50;99.90
5476;DHT22;2760;50.000;9.194;2023-02-28T03:46:54;-1.50;99.90
5476;DHT22;2760;50.000;9.194;2023-02-28T03:49:24;-1.40;99.90
5476;DHT22;2760;50.000;9.194;2023-02-28T03:51:56;-1.40;99.90
5476;DHT22;2760;50.000;9.194;2023-02-28T03:54:29;-1.30;99.90
5476;DHT22;2760;50.000;9.194;2023-02-28T03:57:00;-1.30;99.90
5476;DHT22;2760;50.000;9.194;2023-02-28T03:59:32;-1.20;99.90
5476;DHT22;2760;50.000;9.194;2023-02-28T04:02:01;-1.30;99.90
5476;DHT22;2760;50.000;9.194;2023-02-28T04:04:28;-1.30;99.90
5476;DHT22;2760;50.000;9.194;2023-02-28T04:07:03;-1.40;99.90
5476;DHT22;2760;50.000;9.194;2023-02-28T04:09:30;-1.50;99.90
5476;DHT22;2760;50.000;9.194;2023-02-28T04:11:58;-1.60;99.90
5476;DHT22;2760;50.000;9.194;2023-02-28T04:14:27;-1.60;99.90
5476;DHT22;2760;50.000;9.194;2023-02-28T04:21:51;-1.70;99.90
5476;DHT22;2760;50.000;9.194;2023-02-28T04:24:22;-1.70;99.90
5476;DHT22;2760;50.000;9.194;2023-02-28T04:26:51;-1.70;99.90
5476;DHT22;2760;50.000;9.194;2023-02-28T04:29:21;-1.70;99.90
5476;DHT22;2760;50.000;9.194;2023-02-28T04:31:49;-1.80;99.90
5476;DHT22;2760;50.000;9.194;2023-02-28T04:34:18;-1.80;99.90
5476;DHT22;2760;50.000;9.194;2023-02-28T04:36:46;-1.80;99.90
5476;DHT22;2760;50.000;9.194;2023-02-28T04:39:14;-1.80;99.90
5476;DHT22;2760;50.000;9.194;2023-02-28T04:41:45;-1.80;99.90
5476;DHT22;2760;50.000;9.194;2023-02-28T04:44:12;-1.70;99.90
5476;DHT22;2760;50.000;9.194;2023-02-28T04:46:39;-1.70;99.90
5476;DHT22;2760;50.000;9.194;2023-02-28T04:49:06;-1.70;99.90
5476;DHT22;2760;50.000;9.194;2023-02-28T04:51:33;-1.70;99.90
5476;DHT22;2760;50.000;9.194;2023-02-28T04:54:00;-1.70;99.90
5476;DHT22;2760;50.000;9.194;2023-02-28T04:56:27;-1.70;99.90
5476;DHT22;2760;50.000;9.194;2023-02-28T04:58:55;-1.70;99.90
5476;DHT22;2760;50.000;9.194;2023-02-28T05:01:24;-1.70;99.90
5476;DHT22;2760;50.000;9.194;2023-02-28T05:03:53;-1.60;99.90
5476;DHT22;2760;50.000;9.194;2023-02-28T05:06:22;-1.70;99.90
5476;DHT22;2760;50.000;9.194;2023-02-28T05:08:50;-1.70;99.90
5476;DHT22;2760;50.000;9.194;2023-02-28T05:11:19;-1.70;99.90
5476;DHT22;2760;50.000;9.194;2023-02-28T05:13:46;-1.80;99.90
5476;DHT22;2760;50.000;9.194;2023-02-28T05:16:16;-1.70;99.90
5476;DHT22;2760;50.000;9.194;2023-02-28T05:18:43;-1.70;99.90
5476;DHT22;2760;50.000;9.194;2023-02-28T05:21:23;-1.60;99.90
5476;DHT22;2760;50.000;9.194;2023-02-28T05:23:52;-1.70;99.90
5476;DHT22;2760;50.000;9.194;2023-02-28T05:26:19;-1.70;99.90
5476;DHT22;2760;50.000;9.194;2023-02-28T05:28:47;-1.70;99.90
5476;DHT22;2760;50.000;9.194;2023-02-28T05:31:18;-1.80;99.90
5476;DHT22;2760;50.000;9.194;2023-02-28T05:36:13;-1.70;99.90
5476;DHT22;2760;50.000;9.194;2023-02-28T05:38:40;-1.70;99.90
5476;DHT22;2760;50.000;9.194;2023-02-28T05:43:35;-1.80;99.90
5476;DHT22;2760;50.000;9.194;2023-02-28T05:46:04;-1.80;99.90
5476;DHT22;2760;50.000;9.194;2023-02-28T05:48:34;-2.00;99.90
5476;DHT22;2760;50.000;9.194;2023-02-28T05:51:03;-2.00;99.90
5476;DHT22;2760;50.000;9.194;2023-02-28T05:53:30;-1.90;99.90
5476;DHT22;2760;50.000;9.194;2023-02-28T06:00:56;-1.90;99.90
5476;DHT22;2760;50.000;9.194;2023-02-28T06:05:52;-1.80;99.90
5476;DHT22;2760;50.000;9.194;2023-02-28T06:13:14;-2.00;99.90
5476;DHT22;2760;50.000;9.194;2023-02-28T06:15:41;-2.00;99.90
5476;DHT22;2760;50.000;9.194;2023-02-28T06:20:35;-1.90;99.90
5476;DHT22;2760;50.000;9.194;2023-02-28T06:23:03;-2.00;99.90
5476;DHT22;2760;50.000;9.194;2023-02-28T06:25:30;-2.00;99.90
5476;DHT22;2760;50.000;9.194;2023-02-28T06:27:57;-2.00;99.90
5476;DHT22;2760;50.000;9.194;2023-02-28T06:30:24;-2.10;99.90
5476;DHT22;2760;50.000;9.194;2023-02-28T06:35:23;-2.10;99.90
5476;DHT22;2760;50.000;9.194;2023-02-28T06:40:18;-2.20;99.90
5476;DHT22;2760;50.000;9.194;2023-02-28T06:47:41;-2.00;99.90
5476;DHT22;2760;50.000;9.194;2023-02-28T06:50:12;-2.00;99.90
5476;DHT22;2760;50.000;9.194;2023-02-28T06:52:39;-2.00;99.90
5476;DHT22;2760;50.000;9.194;2023-02-28T06:55:08;-2.00;99.90
5476;DHT22;2760;50.000;9.194;2023-02-28T06:57:37;-2.00;99.90
5476;DHT22;2760;50.000;9.194;2023-02-28T07:00:08;-2.00;99.90
5476;DHT22;2760;50.000;9.194;2023-02-28T07:07:30;-2.00;99.90
5476;DHT22;2760;50.000;9.194;2023-02-28T07:12:25;-1.70;99.90
5476;DHT22;2760;50.000;9.194;2023-02-28T07:14:53;-1.80;99.90
5476;DHT22;2760;50.000;9.194;2023-02-28T07:19:48;-1.50;99.90
5476;DHT22;2760;50.000;9.194;2023-02-28T07:22:15;-1.40;99.90
5476;DHT22;2760;50.000;9.194;2023-02-28T07:24:42;-1.40;99.90
5476;DHT22;2760;50.000;9.194;2023-02-28T07:27:09;-1.40;99.90
5476;DHT22;2760;50.000;9.194;2023-02-28T07:29:36;-1.10;99.90
5476;DHT22;2760;50.000;9.194;2023-02-28T07:32:05;-0.70;99.90
5476;DHT22;2760;50.000;9.194;2023-02-28T07:34:32;-0.20;99.90
5476;DHT22;2760;50.000;9.194;2023-02-28T07:36:59;0.30;99.90
5476;DHT22;2760;50.000;9.194;2023-02-28T07:44:25;1.80;98.50
5476;DHT22;2760;50.000;9.194;2023-02-28T07:49:21;1.40;98.00
5476;DHT22;2760;50.000;9.194;2023-02-28T07:56:42;1.40;98.10
5476;DHT22;2760;50.000;9.194;2023-02-28T08:04:04;1.40;98.00
5476;DHT22;2760;50.000;9.194;2023-02-28T08:06:33;1.40;98.00
5476;DHT22;2760;50.000;9.194;2023-02-28T08:23:46;1.60;97.80
5476;DHT22;2760;50.000;9.194;2023-02-28T08:31:12;1.80;97.40
5476;DHT22;2760;50.000;9.194;2023-02-28T08:36:08;2.00;97.30
5476;DHT22;2760;50.000;9.194;2023-02-28T08:41:06;2.40;96.40
5476;DHT22;2760;50.000;9.194;2023-02-28T08:46:02;2.90;95.80
5476;DHT22;2760;50.000;9.194;2023-02-28T08:48:31;3.10;95.60
5476;DHT22;2760;50.000;9.194;2023-02-28T08:51:00;3.30;95.20
5476;DHT22;2760;50.000;9.194;2023-02-28T08:53:27;3.40;94.80
5476;DHT22;2760;50.000;9.194;2023-02-28T08:55:59;3.60;94.80
5476;DHT22;2760;50.000;9.194;2023-02-28T08:58:28;3.70;94.50
5476;DHT22;2760;50.000;9.194;2023-02-28T09:03:23;3.80;94.20
5476;DHT22;2760;50.000;9.194;2023-02-28T09:05:55;3.90;93.90
5476;DHT22;2760;50.000;9.194;2023-02-28T09:08:22;4.20;93.80
5476;DHT22;2760;50.000;9.194;2023-02-28T09:13:16;4.40;93.50
5476;DHT22;2760;50.000;9.194;2023-02-28T09:15:45;4.30;93.30
5476;DHT22;2760;50.000;9.194;2023-02-28T09:18:13;4.30;93.30
5476;DHT22;2760;50.000;9.194;2023-02-28T09:20:41;4.40;93.00
5476;DHT22;2760;50.000;9.194;2023-02-28T09:25:36;4.70;92.70
5476;DHT22;2760;50.000;9.194;2023-02-28T09:28:03;4.80;92.80
5476;DHT22;2760;50.000;9.194;2023-02-28T09:32:59;4.50;92.20
5476;DHT22;2760;50.000;9.194;2023-02-28T09:35:27;4.60;92.60
5476;DHT22;2760;50.000;9.194;2023-02-28T09:37:54;4.90;92.40
5476;DHT22;2760;50.000;9.194;2023-02-28T09:40:26;5.00;91.80
5476;DHT22;2760;50.000;9.194;2023-02-28T09:42:55;4.60;92.10
5476;DHT22;2760;50.000;9.194;2023-02-28T09:45:24;4.70;92.20
5476;DHT22;2760;50.000;9.194;2023-02-28T09:47:56;5.10;91.70
5476;DHT22;2760;50.000;9.194;2023-02-28T09:50:32;5.40;92.00
5476;DHT22;2760;50.000;9.194;2023-02-28T09:53:05;5.30;91.50
5476;DHT22;2760;50.000;9.194;2023-02-28T09:55:40;5.40;91.40
5476;DHT22;2760;50.000;9.194;2023-02-28T09:58:17;5.30;91.20
5476;DHT22;2760;50.000;9.194;2023-02-28T10:01:04;7.90;92.70
5476;DHT22;2760;50.000;9.194;2023-02-28T10:03:55;5.80;90.40
5476;DHT22;2760;50.000;9.194;2023-02-28T10:06:29;5.70;90.50
5476;DHT22;2760;50.000;9.194;2023-02-28T10:09:01;5.50;89.90
5476;DHT22;2760;50.000;9.194;2023-02-28T10:11:29;5.30;90.60
5476;DHT22;2760;50.000;9.194;2023-02-28T10:14:01;5.30;90.60
5476;DHT22;2760;50.000;9.194;2023-02-28T10:16:33;6.40;91.60
5476;DHT22;2760;50.000;9.194;2023-02-28T10:19:04;4.90;91.70
5476;DHT22;2760;50.000;9.194;2023-02-28T10:21:35;5.40;91.00
5476;DHT22;2760;50.000;9.194;2023-02-28T10:24:11;5.70;90.90
5476;DHT22;2760;50.000;9.194;2023-02-28T10:26:45;6.00;90.00
5476;DHT22;2760;50.000;9.194;2023-02-28T10:29:12;6.20;89.30
5476;DHT22;2760;50.000;9.194;2023-02-28T10:31:39;6.60;89.60
5476;DHT22;2760;50.000;9.194;2023-02-28T10:34:12;5.70;89.60
5476;DHT22;2760;50.000;9.194;2023-02-28T10:36:41;5.50;90.20
5476;DHT22;2760;50.000;9.194;2023-02-28T10:39:35;5.90;89.80
5476;DHT22;2760;50.000;9.194;2023-02-28T10:42:03;6.10;89.20
5476;DHT22;2760;50.000;9.194;2023-02-28T10:44:30;6.40;90.10
5476;DHT22;2760;50.000;9.194;2023-02-28T10:46:58;7.10;88.50
5476;DHT22;2760;50.000;9.194;2023-02-28T10:49:27;7.10;86.70
5476;DHT22;2760;50.000;9.194;2023-02-28T10:52:00;7.40;86.30
5476;DHT22;2760;50.000;9.194;2023-02-28T10:54:29;6.90;87.20
5476;DHT22;2760;50.000;9.194;2023-02-28T10:57:07;6.90;88.00
5476;DHT22;2760;50.000;9.194;2023-02-28T10:59:35;6.90;88.80
5476;DHT22;2760;50.000;9.194;2023-02-28T11:02:08;8.70;90.30
5476;DHT22;2760;50.000;9.194;2023-02-28T11:04:53;6.20;89.60
5476;DHT22;2760;50.000;9.194;2023-02-28T11:07:23;6.70;89.80
5476;DHT22;2760;50.000;9.194;2023-02-28T11:09:53;6.30;89.40
5476;DHT22;2760;50.000;9.194;2023-02-28T11:12:22;6.10;89.20
5476;DHT22;2760;50.000;9.194;2023-02-28T11:14:52;6.20;89.30
5476;DHT22;2760;50.000;9.194;2023-02-28T11:17:21;6.00;89.10
5476;DHT22;2760;50.000;9.194;2023-02-28T11:19:52;6.10;90.30
5476;DHT22;2760;50.000;9.194;2023-02-28T11:22:23;7.60;91.20
5476;DHT22;2760;50.000;9.194;2023-02-28T11:24:56;5.70;89.00
5476;DHT22;2760;50.000;9.194;2023-02-28T11:27:46;5.00;90.30
5476;DHT22;2760;50.000;9.194;2023-02-28T11:30:26;5.10;90.10
5476;DHT22;2760;50.000;9.194;2023-02-28T11:32:54;4.90;90.20
5476;DHT22;2760;50.000;9.194;2023-02-28T11:35:27;4.90;90.40
5476;DHT22;2760;50.000;9.194;2023-02-28T11:37:57;5.00;90.30
5476;DHT22;2760;50.000;9.194;2023-02-28T11:40:30;7.60;90.90
5476;DHT22;2760;50.000;9.194;2023-02-28T11:43:07;6.50;90.60
5476;DHT22;2760;50.000;9.194;2023-02-28T11:45:51;6.90;89.20
5476;DHT22;2760;50.000;9.194;2023-02-28T11:48:25;7.20;86.30
5476;DHT22;2760;50.000;9.194;2023-02-28T11:51:00;7.40;86.70
5476;DHT22;2760;50.000;9.194;2023-02-28T11:53:44;9.20;88.30
5476;DHT22;2760;50.000;9.194;2023-02-28T11:56:19;7.50;85.80
5476;DHT22;2760;50.000;9.194;2023-02-28T11:58:55;7.60;86.40
5476;DHT22;2760;50.000;9.194;2023-02-28T12:01:42;7.80;85.20
5476;DHT22;2760;50.000;9.194;2023-02-28T12:04:20;7.80;85.90
5476;DHT22;2760;50.000;9.194;2023-02-28T12:06:52;8.00;85.40
5476;DHT22;2760;50.000;9.194;2023-02-28T12:09:42;8.20;84.90
5476;DHT22;2760;50.000;9.194;2023-02-28T12:12:23;7.40;86.10
5476;DHT22;2760;50.000;9.194;2023-02-28T12:15:24;7.20;86.00
5476;DHT22;2760;50.000;9.194;2023-02-28T12:18:03;9.20;88.00
5476;DHT22;2760;50.000;9.194;2023-02-28T12:20:38;8.00;85.10
5476;DHT22;2760;50.000;9.194;2023-02-28T12:23:21;7.60;84.80
5476;DHT22;2760;50.000;9.194;2023-02-28T12:26:02;7.50;84.50
5476;DHT22;2760;50.000;9.194;2023-02-28T12:28:39;7.60;85.80
5476;DHT22;2760;50.000;9.194;2023-02-28T12:31:13;7.60;86.40
5476;DHT22;2760;50.000;9.194;2023-02-28T12:33:43;7.00;86.50
5476;DHT22;2760;50.000;9.194;2023-02-28T12:36:15;7.60;86.30
5476;DHT22;2760;50.000;9.194;2023-02-28T12:38:48;7.50;83.90
5476;DHT22;2760;50.000;9.194;2023-02-28T12:41:18;7.20;84.40
5476;DHT22;2760;50.000;9.194;2023-02-28T12:43:51;7.10;85.80
5476;DHT22;2760;50.000;9.194;2023-02-28T12:46:23;7.80;83.70
5476;DHT22;2760;50.000;9.194;2023-02-28T12:48:53;7.70;84.80
5476;DHT22;2760;50.000;9.194;2023-02-28T12:51:23;8.00;83.60
5476;DHT22;2760;50.000;9.194;2023-02-28T12:53:58;7.80;84.20
5476;DHT22;2760;50.000;9.194;2023-02-28T12:56:35;8.70;85.00
5476;DHT22;2760;50.000;9.194;2023-02-28T12:59:07;10.30;85.90
5476;DHT22;2760;50.000;9.194;2023-02-28T13:01:57;7.90;84.20
5476;DHT22;2760;50.000;9.194;2023-02-28T13:04:59;7.70;83.90
5476;DHT22;2760;50.000;9.194;2023-02-28T13:10:47;8.00;84.60
5476;DHT22;2760;50.000;9.194;2023-02-28T13:13:18;7.90;83.90
5476;DHT22;2760;50.000;9.194;2023-02-28T13:16:00;8.30;83.00
5476;DHT22;2760;50.000;9.194;2023-02-28T13:18:31;9.80;84.90
5476;DHT22;2760;50.000;9.194;2023-02-28T13:21:00;10.50;83.70
5476;DHT22;2760;50.000;9.194;2023-02-28T13:23:56;9.90;82.80
5476;DHT22;2760;50.000;9.194;2023-02-28T13:29:31;9.20;83.20
5476;DHT22;2760;50.000;9.194;2023-02-28T13:32:28;8.90;84.60
5476;DHT22;2760;50.000;9.194;2023-02-28T13:38:32;8.80;83.10
5476;DHT22;2760;50.000;9.194;2023-02-28T13:44:07;8.80;83.00
5476;DHT22;2760;50.000;9.194;2023-02-28T13:47:15;9.80;83.20
5476;DHT22;2760;50.000;9.194;2023-02-28T13:49:29;8.00;82.30
5476;DHT22;2760;50.000;9.194;2023-02-28T13:52:10;9.50;85.50
5476;DHT22;2760;50.000;9.194;2023-02-28T13:54:49;7.70;83.60
5476;DHT22;2760;50.000;9.194;2023-02-28T13:57:29;8.40;84.00
5476;DHT22;2760;50.000;9.194;2023-02-28T14:00:13;8.40;84.30
5476;DHT22;2760;50.000;9.194;2023-02-28T14:03:06;8.00;83.40
5476;DHT22;2760;50.000;9.194;2023-02-28T14:05:37;10.20;85.30
5476;DHT22;2760;50.000;9.194;2023-02-28T14:08:07;11.00;85.80
5476;DHT22;2760;50.000;9.194;2023-02-28T14:10:43;8.10;83.80
5476;DHT22;2760;50.000;9.194;2023-02-28T14:13:39;8.00;84.80
5476;DHT22;2760;50.000;9.194;2023-02-28T14:16:11;8.20;84.60
5476;DHT22;2760;50.000;9.194;2023-02-28T14:18:41;8.10;84.40
5476;DHT22;2760;50.000;9.194;2023-02-28T14:21:16;10.40;87.00
5476;DHT22;2760;50.000;9.194;2023-02-28T14:24:20;10.30;85.90
5476;DHT22;2760;50.000;9.194;2023-02-28T14:33:08;7.40;84.90
5476;DHT22;2760;50.000;9.194;2023-02-28T14:35:50;7.50;84.60
5476;DHT22;2760;50.000;9.194;2023-02-28T14:38:25;10.00;86.80
5476;DHT22;2760;50.000;9.194;2023-02-28T14:40:55;8.50;85.80
5476;DHT22;2760;50.000;9.194;2023-02-28T14:43:25;7.80;86.00
5476;DHT22;2760;50.000;9.194;2023-02-28T14:45:55;6.00;83.20
5476;DHT22;2760;50.000;9.194;2023-02-28T14:50:53;7.70;84.60
5476;DHT22;2760;50.000;9.194;2023-02-28T14:53:25;7.50;84.90
5476;DHT22;2760;50.000;9.194;2023-02-28T14:55:52;7.40;85.00
5476;DHT22;2760;50.000;9.194;2023-02-28T14:58:23;7.20;85.40
5476;DHT22;2760;50.000;9.194;2023-02-28T15:00:51;7.30;85.40
5476;DHT22;2760;50.000;9.194;2023-02-28T15:03:21;7.40;86.60
5476;DHT22;2760;50.000;9.194;2023-02-28T15:05:53;7.60;84.70
5476;DHT22;2760;50.000;9.194;2023-02-28T15:08:22;7.70;84.50
5476;DHT22;2760;50.000;9.194;2023-02-28T15:10:54;8.90;86.40
5476;DHT22;2760;50.000;9.194;2023-02-28T15:13:22;7.80;86.00
5476;DHT22;2760;50.000;9.194;2023-02-28T15:15:53;10.00;85.90
5476;DHT22;2760;50.000;9.194;2023-02-28T15:18:27;9.80;87.00
5476;DHT22;2760;50.000;9.194;2023-02-28T15:20:56;7.80;84.20
5476;DHT22;2760;50.000;9.194;2023-02-28T15:23:26;7.60;85.30
5476;DHT22;2760;50.000;9.194;2023-02-28T15:25:53;7.50;85.40
5476;DHT22;2760;50.000;9.194;2023-02-28T15:28:22;9.10;87.00
5476;DHT22;2760;50.000;9.194;2023-02-28T15:30:55;8.40;87.60
5476;DHT22;2760;50.000;9.194;2023-02-28T15:33:24;9.30;88.60
5476;DHT22;2760;50.000;9.194;2023-02-28T15:36:02;5.90;84.90
5476;DHT22;2760;50.000;9.194;2023-02-28T15:38:34;6.80;86.20
5476;DHT22;2760;50.000;9.194;2023-02-28T15:41:01;6.70;86.40
5476;DHT22;2760;50.000;9.194;2023-02-28T15:43:29;8.90;89.20
5476;DHT22;2760;50.000;9.194;2023-02-28T15:45:59;9.00;89.30
5476;DHT22;2760;50.000;9.194;2023-02-28T15:48:29;6.50;87.50
5476;DHT22;2760;50.000;9.194;2023-02-28T15:51:01;7.60;88.80
5476;DHT22;2760;50.000;9.194;2023-02-28T15:53:32;6.40;88.40
5476;DHT22;2760;50.000;9.194;2023-02-28T15:56:02;6.40;88.00
5476;DHT22;2760;50.000;9.194;2023-02-28T15:58:30;6.40;88.10
5476;DHT22;2760;50.000;9.194;2023-02-28T16:01:17;6.30;87.90
5476;DHT22;2760;50.000;9.194;2023-02-28T16:03:47;6.30;88.60
5476;DHT22;2760;50.000;9.194;2023-02-28T16:06:38;6.60;88.80
5476;DHT22;2760;50.000;9.194;2023-02-28T16:09:11;6.20;89.20
5476;DHT22;2760;50.000;9.194;2023-02-28T16:11:42;7.70;90.40
5476;DHT22;2760;50.000;9.194;2023-02-28T16:14:21;5.90;89.10
5476;DHT22;2760;50.000;9.194;2023-02-28T16:16:52;5.70;89.40
5476;DHT22;2760;50.000;9.194;2023-02-28T16:19:19;7.90;91.10
5476;DHT22;2760;50.000;9.194;2023-02-28T16:21:47;5.80;89.80
5476;DHT22;2760;50.000;9.194;2023-02-28T16:24:18;5.60;90.20
5476;DHT22;2760;50.000;9.194;2023-02-28T16:26:47;7.70;91.00
5476;DHT22;2760;50.000;9.194;2023-02-28T16:29:24;6.40;90.50
5476;DHT22;2760;50.000;9.194;2023-02-28T16:31:53;5.60;90.20
5476;DHT22;2760;50.000;9.194;2023-02-28T16:34:20;5.70;90.00
5476;DHT22;2760;50.000;9.194;2023-02-28T16:36:48;5.50;90.20
5476;DHT22;2760;50.000;9.194;2023-02-28T16:39:15;5.50;90.20
5476;DHT22;2760;50.000;9.194;2023-02-28T16:41:45;5.40;90.60
5476;DHT22;2760;50.000;9.194;2023-02-28T16:44:19;4.10;90.00
5476;DHT22;2760;50.000;9.194;2023-02-28T16:46:47;5.50;90.80
5476;DHT22;2760;50.000;9.194;2023-02-28T16:49:14;5.30;90.80
5476;DHT22;2760;50.000;9.194;2023-02-28T16:51:41;5.20;90.60
5476;DHT22;2760;50.000;9.194;2023-02-28T16:54:08;6.00;91.30
5476;DHT22;2760;50.000;9.194;2023-02-28T16:56:38;5.50;91.70
5476;DHT22;2760;50.000;9.194;2023-02-28T16:59:10;5.40;91.60
5476;DHT22;2760;50.000;9.194;2023-02-28T17:01:38;5.10;91.60
5476;DHT22;2760;50.000;9.194;2023-02-28T17:04:05;5.10;92.00
5476;DHT22;2760;50.000;9.194;2023-02-28T17:06:32;6.20;92.20
5476;DHT22;2760;50.000;9.194;2023-02-28T17:08:59;4.80;91.60
5476;DHT22;2760;50.000;9.194;2023-02-28T17:11:26;4.70;91.70
5476;DHT22;2760;50.000;9.194;2023-02-28T17:13:53;4.70;91.90
5476;DHT22;2760;50.000;9.194;2023-02-28T17:16:25;5.70;93.00
5476;DHT22;2760;50.000;9.194;2023-02-28T17:18:58;6.50;93.30
5476;DHT22;2760;50.000;9.194;2023-02-28T17:21:26;4.60;92.40
5476;DHT22;2760;50.000;9.194;2023-02-28T17:23:53;6.70;93.50
5476;DHT22;2760;50.000;9.194;2023-02-28T17:26:23;4.50;92.90
5476;DHT22;2760;50.000;9.194;2023-02-28T17:28:52;5.20;93.10
5476;DHT22;2760;50.000;9.194;2023-02-28T17:31:33;5.70;93.20
5476;DHT22;2760;50.000;9.194;2023-02-28T17:34:16;4.50;92.70
5476;DHT22;2760;50.000;9.194;2023-02-28T17:36:50;6.20;93.80
5476;DHT22;2760;50.000;9.194;2023-02-28T17:39:31;6.60;94.20
5476;DHT22;2760;50.000;9.194;2023-02-28T17:42:01;6.10;94.10
5476;DHT22;2760;50.000;9.194;2023-02-28T17:44:30;5.90;94.30
5476;DHT22;2760;50.000;9.194;2023-02-28T17:47:00;4.00;93.60
5476;DHT22;2760;50.000;9.194;2023-02-28T17:49:30;3.80;94.10
5476;DHT22;2760;50.000;9.194;2023-02-28T17:51:58;3.80;94.30
5476;DHT22;2760;50.000;9.194;2023-02-28T17:54:26;4.80;95.10
5476;DHT22;2760;50.000;9.194;2023-02-28T17:56:53;4.70;95.30
5476;DHT22;2760;50.000;9.194;2023-02-28T17:59:20;5.80;95.80
5476;DHT22;2760;50.000;9.194;2023-02-28T18:01:49;3.70;95.10
5476;DHT22;2760;50.000;9.194;2023-02-28T18:04:17;3.60;95.30
5476;DHT22;2760;50.000;9.194;2023-02-28T18:06:45;3.70;95.40
5476;DHT22;2760;50.000;9.194;2023-02-28T18:09:17;5.20;96.20
5476;DHT22;2760;50.000;9.194;2023-02-28T18:11:47;3.20;95.30
5476;DHT22;2760;50.000;9.194;2023-02-28T18:14:17;3.10;95.60
5476;DHT22;2760;50.000;9.194;2023-02-28T18:16:45;3.10;96.10
5476;DHT22;2760;50.000;9.194;2023-02-28T18:19:13;3.40;96.20
5476;DHT22;2760;50.000;9.194;2023-02-28T18:21:49;3.10;96.20
5476;DHT22;2760;50.000;9.194;2023-02-28T18:24:17;3.70;96.40
5476;DHT22;2760;50.000;9.194;2023-02-28T18:26:45;3.80;96.70
5476;DHT22;2760;50.000;9.194;2023-02-28T18:29:17;3.00;96.30
5476;DHT22;2760;50.000;9.194;2023-02-28T18:31:46;3.30;96.60
5476;DHT22;2760;50.000;9.194;2023-02-28T18:34:13;2.80;96.80
5476;DHT22;2760;50.000;9.194;2023-02-28T18:36:42;3.90;97.50
5476;DHT22;2760;50.000;9.194;2023-02-28T18:39:11;4.60;97.80
5476;DHT22;2760;50.000;9.194;2023-02-28T18:41:40;4.30;98.20